sensor_id;sensor_type;location;lat;lon;timestamp;temperature;humidity
69464;DHT22;56665;41.106;16.688;2023-05-20T00:00:36;18.03;84.24
69464;DHT22;56665;41.106;16.688;2023-05-20T00:03:40;18.02;84.32
69464;DHT22;56665;41.106;16.688;2023-05-20T00:06:43;17.99;84.62
69464;DHT22;56665;41.106;16.688;2023-05-20T00:09:47;17.93;84.88
69464;DHT22;56665;41.106;16.688;2023-05-20T00:12:51;17.93;84.85
69464;DHT22;56665;41.106;16.688;2023-05-20T00:15:55;17.90;85.01
69464;DHT22;56665;41.106;16.688;2023-05-20T00:18:59;17.83;84.98
69464;DHT22;56665;41.106;16.688;2023-05-20T00:22:02;17.83;85.29
69464;DHT22;56665;41.106;16.688;2023-05-20T00:25:07;17.78;85.25
69464;DHT22;56665;41.106;16.688;2023-05-20T00:28:11;17.82;85.13
69464;DHT22;56665;41.106;16.688;2023-05-20T00:31:14;17.82;85.09
69464;DHT22;56665;41.106;16.688;2023-05-20T00:34:19;17.79;85.30
69464;DHT22;56665;41.106;16.688;2023-05-20T00:37:23;17.79;85.41
69464;DHT22;56665;41.106;16.688;2023-05-20T00:40:27;17.79;85.60
69464;DHT22;56665;41.106;16.688;2023-05-20T00:43:31;17.78;85.35
69464;DHT22;56665;41.106;16.688;2023-05-20T00:46:35;17.78;85.46
69464;DHT22;56665;41.106;16.688;2023-05-20T00:49:39;17.75;85.62
69464;DHT22;56665;41.106;16.688;2023-05-20T00:52:43;17.78;85.27
69464;DHT22;56665;41.106;16.688;2023-05-20T00:55:49;17.78;85.26
69464;DHT22;56665;41.106;16.688;2023-05-20T00:58:53;17.81;85.06
69464;DHT22;56665;41.106;16.688;2023-05-20T01:01:56;17.82;85.03
69464;DHT22;56665;41.106;16.688;2023-05-20T01:05:00;17.79;84.99
69464;DHT22;56665;41.106;16.688;2023-05-20T01:08:04;17.81;85.06
69464;DHT22;56665;41.106;16.688;2023-05-20T01:11:13;17.78;84.93
69464;DHT22;56665;41.106;16.688;2023-05-20T01:14:20;17.85;84.76
69464;DHT22;56665;41.106;16.688;2023-05-20T01:17:27;17.85;84.35
69464;DHT22;56665;41.106;16.688;2023-05-20T01:20:33;17.89;84.34
69464;DHT22;56665;41.106;16.688;2023-05-20T01:23:39;17.86;84.65
69464;DHT22;56665;41.106;16.688;2023-05-20T01:26:45;17.85;84.77
69464;DHT22;56665;41.106;16.688;2023-05-20T01:29:51;17.83;84.90
69464;DHT22;56665;41.106;16.688;2023-05-20T01:33:06;17.79;84.92
69464;DHT22;56665;41.106;16.688;2023-05-20T01:36:11;17.79;85.31
69464;DHT22;56665;41.106;16.688;2023-05-20T01:39:16;17.81;85.33
69464;DHT22;56665;41.106;16.688;2023-05-20T01:42:21;17.74;85.73
69464;DHT22;56665;41.106;16.688;2023-05-20T01:45:25;17.75;86.28
69464;DHT22;56665;41.106;16.688;2023-05-20T01:48:28;17.72;86.56
69464;DHT22;56665;41.106;16.688;2023-05-20T01:51:32;17.71;86.51
69464;DHT22;56665;41.106;16.688;2023-05-20T01:54:37;17.67;86.56
69464;DHT22;56665;41.106;16.688;2023-05-20T01:57:41;17.68;86.58
69464;DHT22;56665;41.106;16.688;2023-05-20T02:00:45;17.64;86.54
69464;DHT22;56665;41.106;16.688;2023-05-20T02:03:48;17.65;86.53
69464;DHT22;56665;41.106;16.688;2023-05-20T02:06:52;17.69;86.69
69464;DHT22;56665;41.106;16.688;2023-05-20T02:09:56;17.68;86.05
69464;DHT22;56665;41.106;16.688;2023-05-20T02:12:59;17.67;86.17
69464;DHT22;56665;41.106;16.688;2023-05-20T02:16:04;17.58;85.75
69464;DHT22;56665;41.106;16.688;2023-05-20T02:19:08;17.52;85.51
69464;DHT22;56665;41.106;16.688;2023-05-20T02:22:15;17.42;85.79
69464;DHT22;56665;41.106;16.688;2023-05-20T02:25:20;17.44;86.03
69464;DHT22;56665;41.106;16.688;2023-05-20T02:28:24;17.41;86.05
69464;DHT22;56665;41.106;16.688;2023-05-20T02:31:27;17.41;86.22
69464;DHT22;56665;41.106;16.688;2023-05-20T02:34:31;17.39;86.23
69464;DHT22;56665;41.106;16.688;2023-05-20T02:37:35;17.38;86.01
69464;DHT22;56665;41.106;16.688;2023-05-20T02:40:44;17.32;86.42
69464;DHT22;56665;41.106;16.688;2023-05-20T02:43:48;17.26;86.78
69464;DHT22;56665;41.106;16.688;2023-05-20T02:46:51;17.31;86.51
69464;DHT22;56665;41.106;16.688;2023-05-20T02:49:55;17.34;86.65
69464;DHT22;56665;41.106;16.688;2023-05-20T02:52:59;17.44;86.65
69464;DHT22;56665;41.106;16.688;2023-05-20T02:56:03;17.48;86.49
69464;DHT22;56665;41.106;16.688;2023-05-20T02:59:07;17.55;86.28
69464;DHT22;56665;41.106;16.688;2023-05-20T03:02:11;17.59;86.41
69464;DHT22;56665;41.106;16.688;2023-05-20T03:05:16;17.59;86.59
69464;DHT22;56665;41.106;16.688;2023-05-20T03:08:21;17.55;86.69
69464;DHT22;56665;41.106;16.688;2023-05-20T03:11:25;17.47;86.87
69464;DHT22;56665;41.106;16.688;2023-05-20T03:14:29;17.47;87.22
69464;DHT22;56665;41.106;16.688;2023-05-20T03:17:33;17.47;87.12
69464;DHT22;56665;41.106;16.688;2023-05-20T03:20:37;17.47;86.96
69464;DHT22;56665;41.106;16.688;2023-05-20T03:23:43;17.44;87.01
69464;DHT22;56665;41.106;16.688;2023-05-20T03:26:48;17.48;87.12
69464;DHT22;56665;41.106;16.688;2023-05-20T03:29:52;17.51;87.03
69464;DHT22;56665;41.106;16.688;2023-05-20T03:32:58;17.49;86.74
69464;DHT22;56665;41.106;16.688;2023-05-20T03:36:02;17.49;86.87
69464;DHT22;56665;41.106;16.688;2023-05-20T03:39:06;17.45;86.82
69464;DHT22;56665;41.106;16.688;2023-05-20T03:42:10;17.42;86.93
69464;DHT22;56665;41.106;16.688;2023-05-20T03:45:13;17.42;87.04
69464;DHT22;56665;41.106;16.688;2023-05-20T03:48:29;17.41;86.97
69464;DHT22;56665;41.106;16.688;2023-05-20T03:51:33;17.45;86.91
69464;DHT22;56665;41.106;16.688;2023-05-20T03:54:43;17.48;86.62
69464;DHT22;56665;41.106;16.688;2023-05-20T03:57:48;17.52;86.37
69464;DHT22;56665;41.106;16.688;2023-05-20T04:00:52;17.57;86.16
69464;DHT22;56665;41.106;16.688;2023-05-20T04:03:55;17.58;86.13
69464;DHT22;56665;41.106;16.688;2023-05-20T04:06:59;17.61;86.11
69464;DHT22;56665;41.106;16.688;2023-05-20T04:10:03;17.67;85.77
69464;DHT22;56665;41.106;16.688;2023-05-20T04:13:07;17.71;85.61
69464;DHT22;56665;41.106;16.688;2023-05-20T04:16:11;17.69;85.33
69464;DHT22;56665;41.106;16.688;2023-05-20T04:19:15;17.71;85.35
69464;DHT22;56665;41.106;16.688;2023-05-20T04:22:22;17.75;85.45
69464;DHT22;56665;41.106;16.688;2023-05-20T04:25:26;17.79;85.43
69464;DHT22;56665;41.106;16.688;2023-05-20T04:28:31;17.85;85.40
69464;DHT22;56665;41.106;16.688;2023-05-20T04:31:34;17.88;85.29
69464;DHT22;56665;41.106;16.688;2023-05-20T04:34:38;17.92;85.53
69464;DHT22;56665;41.106;16.688;2023-05-20T04:37:43;17.97;85.60
69464;DHT22;56665;41.106;16.688;2023-05-20T04:40:55;18.06;85.77
69464;DHT22;56665;41.106;16.688;2023-05-20T04:44:01;18.09;85.71
69464;DHT22;56665;41.106;16.688;2023-05-20T04:47:04;18.16;85.86
69464;DHT22;56665;41.106;16.688;2023-05-20T04:50:13;18.23;85.84
69464;DHT22;56665;41.106;16.688;2023-05-20T04:53:18;18.33;85.80
69464;DHT22;56665;41.106;16.688;2023-05-20T04:56:21;18.37;85.30
69464;DHT22;56665;41.106;16.688;2023-05-20T04:59:25;18.38;85.18
69464;DHT22;56665;41.106;16.688;2023-05-20T05:02:30;18.38;85.70
69464;DHT22;56665;41.106;16.688;2023-05-20T05:05:37;18.41;85.41
69464;DHT22;56665;41.106;16.688;2023-05-20T05:08:41;18.40;85.91
69464;DHT22;56665;41.106;16.688;2023-05-20T05:11:45;18.30;85.64
69464;DHT22;56665;41.106;16.688;2023-05-20T05:14:49;18.24;85.81
69464;DHT22;56665;41.106;16.688;2023-05-20T05:17:53;18.21;86.27
69464;DHT22;56665;41.106;16.688;2023-05-20T05:20:58;18.34;85.99
69464;DHT22;56665;41.106;16.688;2023-05-20T05:24:03;18.41;85.73
69464;DHT22;56665;41.106;16.688;2023-05-20T05:27:07;18.47;85.32
69464;DHT22;56665;41.106;16.688;2023-05-20T05:30:11;18.51;85.13
69464;DHT22;56665;41.106;16.688;2023-05-20T05:33:15;18.68;85.07
69464;DHT22;56665;41.106;16.688;2023-05-20T05:36:22;18.84;84.51
69464;DHT22;56665;41.106;16.688;2023-05-20T05:39:28;18.91;84.11
69464;DHT22;56665;41.106;16.688;2023-05-20T05:42:31;18.94;84.31
69464;DHT22;56665;41.106;16.688;2023-05-20T05:45:35;19.03;84.39
69464;DHT22;56665;41.106;16.688;2023-05-20T05:48:39;19.16;84.31
69464;DHT22;56665;41.106;16.688;2023-05-20T05:51:45;19.27;83.88
69464;DHT22;56665;41.106;16.688;2023-05-20T05:54:49;19.40;83.78
69464;DHT22;56665;41.106;16.688;2023-05-20T05:57:52;19.58;83.59
69464;DHT22;56665;41.106;16.688;2023-05-20T06:00:56;19.67;83.12
69464;DHT22;56665;41.106;16.688;2023-05-20T06:04:00;19.58;82.86
69464;DHT22;56665;41.106;16.688;2023-05-20T06:07:04;19.51;83.47
69464;DHT22;56665;41.106;16.688;2023-05-20T06:10:08;19.37;83.99
69464;DHT22;56665;41.106;16.688;2023-05-20T06:13:12;19.27;84.23
69464;DHT22;56665;41.106;16.688;2023-05-20T06:16:16;19.27;84.76
69464;DHT22;56665;41.106;16.688;2023-05-20T06:19:20;19.18;83.95
69464;DHT22;56665;41.106;16.688;2023-05-20T06:22:24;19.32;83.94
69464;DHT22;56665;41.106;16.688;2023-05-20T06:25:28;19.47;82.91
69464;DHT22;56665;41.106;16.688;2023-05-20T06:28:33;19.56;82.89
69464;DHT22;56665;41.106;16.688;2023-05-20T06:31:37;19.66;83.45
69464;DHT22;56665;41.106;16.688;2023-05-20T06:34:40;19.71;83.38
69464;DHT22;56665;41.106;16.688;2023-05-20T06:37:44;19.77;82.82
69464;DHT22;56665;41.106;16.688;2023-05-20T06:40:48;19.73;82.95
69464;DHT22;56665;41.106;16.688;2023-05-20T06:43:52;19.74;83.68
69464;DHT22;56665;41.106;16.688;2023-05-20T06:47:31;19.85;83.67
69464;DHT22;56665;41.106;16.688;2023-05-20T06:50:35;19.89;83.55
69464;DHT22;56665;41.106;16.688;2023-05-20T06:53:39;19.94;83.35
69464;DHT22;56665;41.106;16.688;2023-05-20T06:56:43;20.09;82.91
69464;DHT22;56665;41.106;16.688;2023-05-20T06:59:47;20.26;81.88
69464;DHT22;56665;41.106;16.688;2023-05-20T07:02:52;20.38;81.22
69464;DHT22;56665;41.106;16.688;2023-05-20T07:05:57;20.61;80.72
69464;DHT22;56665;41.106;16.688;2023-05-20T07:09:02;20.96;78.68
69464;DHT22;56665;41.106;16.688;2023-05-20T07:12:06;21.27;78.16
69464;DHT22;56665;41.106;16.688;2023-05-20T07:15:10;21.25;75.96
69464;DHT22;56665;41.106;16.688;2023-05-20T07:18:15;21.24;76.53
69464;DHT22;56665;41.106;16.688;2023-05-20T07:21:20;21.19;76.49
69464;DHT22;56665;41.106;16.688;2023-05-20T07:24:56;21.27;76.66
69464;DHT22;56665;41.106;16.688;2023-05-20T07:28:00;21.28;76.42
69464;DHT22;56665;41.106;16.688;2023-05-20T07:31:05;21.15;76.24
69464;DHT22;56665;41.106;16.688;2023-05-20T07:34:12;21.11;77.01
69464;DHT22;56665;41.106;16.688;2023-05-20T07:37:42;21.06;77.61
69464;DHT22;56665;41.106;16.688;2023-05-20T07:40:46;21.18;77.38
69464;DHT22;56665;41.106;16.688;2023-05-20T07:43:49;21.48;75.54
69464;DHT22;56665;41.106;16.688;2023-05-20T07:46:53;21.77;73.83
69464;DHT22;56665;41.106;16.688;2023-05-20T07:49:58;22.60;72.30
69464;DHT22;56665;41.106;16.688;2023-05-20T07:53:05;23.91;68.12
69464;DHT22;56665;41.106;16.688;2023-05-20T07:56:11;25.44;63.70
69464;DHT22;56665;41.106;16.688;2023-05-20T07:59:18;26.41;60.19
69464;DHT22;56665;41.106;16.688;2023-05-20T08:02:25;26.02;60.27
69464;DHT22;56665;41.106;16.688;2023-05-20T08:05:29;25.82;60.99
69464;DHT22;56665;41.106;16.688;2023-05-20T08:08:39;25.83;61.16
69464;DHT22;56665;41.106;16.688;2023-05-20T08:11:54;26.44;59.71
69464;DHT22;56665;41.106;16.688;2023-05-20T08:14:58;26.44;59.36
69464;DHT22;56665;41.106;16.688;2023-05-20T08:18:06;26.04;60.02
69464;DHT22;56665;41.106;16.688;2023-05-20T08:21:12;25.61;60.92
69464;DHT22;56665;41.106;16.688;2023-05-20T08:24:16;25.24;61.41
69464;DHT22;56665;41.106;16.688;2023-05-20T08:27:20;24.87;61.65
69464;DHT22;56665;41.106;16.688;2023-05-20T08:30:24;25.00;62.37
69464;DHT22;56665;41.106;16.688;2023-05-20T08:33:28;24.93;62.57
69464;DHT22;56665;41.106;16.688;2023-05-20T08:36:33;24.82;62.83
69464;DHT22;56665;41.106;16.688;2023-05-20T08:39:37;25.00;62.12
69464;DHT22;56665;41.106;16.688;2023-05-20T08:42:43;25.22;61.64
69464;DHT22;56665;41.106;16.688;2023-05-20T08:45:46;25.46;60.89
69464;DHT22;56665;41.106;16.688;2023-05-20T08:48:50;25.83;59.92
69464;DHT22;56665;41.106;16.688;2023-05-20T08:51:54;26.02;59.18
69464;DHT22;56665;41.106;16.688;2023-05-20T08:54:58;25.89;59.45
69464;DHT22;56665;41.106;16.688;2023-05-20T08:58:02;25.54;59.87
69464;DHT22;56665;41.106;16.688;2023-05-20T09:01:06;24.82;60.32
69464;DHT22;56665;41.106;16.688;2023-05-20T09:04:10;24.62;61.50
69464;DHT22;56665;41.106;16.688;2023-05-20T09:07:14;24.46;62.02
69464;DHT22;56665;41.106;16.688;2023-05-20T09:10:19;24.55;61.86
69464;DHT22;56665;41.106;16.688;2023-05-20T09:13:29;24.72;61.80
69464;DHT22;56665;41.106;16.688;2023-05-20T09:16:34;25.11;61.28
69464;DHT22;56665;41.106;16.688;2023-05-20T09:19:39;25.44;60.27
69464;DHT22;56665;41.106;16.688;2023-05-20T09:22:45;25.21;61.27
69464;DHT22;56665;41.106;16.688;2023-05-20T09:25:51;25.22;61.46
69464;DHT22;56665;41.106;16.688;2023-05-20T09:28:56;25.15;61.87
69464;DHT22;56665;41.106;16.688;2023-05-20T09:32:02;24.86;63.17
69464;DHT22;56665;41.106;16.688;2023-05-20T09:35:07;24.21;64.27
69464;DHT22;56665;41.106;16.688;2023-05-20T09:38:12;24.08;63.72
69464;DHT22;56665;41.106;16.688;2023-05-20T09:41:16;24.21;63.56
69464;DHT22;56665;41.106;16.688;2023-05-20T09:44:21;24.06;63.42
69464;DHT22;56665;41.106;16.688;2023-05-20T09:47:25;23.94;62.91
69464;DHT22;56665;41.106;16.688;2023-05-20T09:50:30;23.97;62.83
69464;DHT22;56665;41.106;16.688;2023-05-20T09:53:34;23.64;62.67
69464;DHT22;56665;41.106;16.688;2023-05-20T09:56:41;23.78;62.18
69464;DHT22;56665;41.106;16.688;2023-05-20T09:59:45;24.16;61.94
69464;DHT22;56665;41.106;16.688;2023-05-20T10:02:50;24.42;61.76
69464;DHT22;56665;41.106;16.688;2023-05-20T10:16:53;23.74;63.82
69464;DHT22;56665;41.106;16.688;2023-05-20T10:20:05;23.37;64.90
69464;DHT22;56665;41.106;16.688;2023-05-20T10:23:31;23.23;65.21
69464;DHT22;56665;41.106;16.688;2023-05-20T10:26:40;23.32;65.22
69464;DHT22;56665;41.106;16.688;2023-05-20T10:29:51;22.89;65.69
69464;DHT22;56665;41.106;16.688;2023-05-20T10:32:57;22.74;66.31
69464;DHT22;56665;41.106;16.688;2023-05-20T10:36:05;22.43;67.96
69464;DHT22;56665;41.106;16.688;2023-05-20T10:39:15;22.10;68.84
69464;DHT22;56665;41.106;16.688;2023-05-20T10:42:28;21.83;69.65
69464;DHT22;56665;41.106;16.688;2023-05-20T10:45:32;21.56;71.53
69464;DHT22;56665;41.106;16.688;2023-05-20T10:48:40;21.24;73.76
69464;DHT22;56665;41.106;16.688;2023-05-20T10:51:45;21.15;73.47
69464;DHT22;56665;41.106;16.688;2023-05-20T10:57:56;21.45;73.72
69464;DHT22;56665;41.106;16.688;2023-05-20T11:01:01;21.70;73.41
69464;DHT22;56665;41.106;16.688;2023-05-20T11:04:06;22.28;70.30
69464;DHT22;56665;41.106;16.688;2023-05-20T11:07:10;23.02;69.73
69464;DHT22;56665;41.106;16.688;2023-05-20T11:10:14;23.57;68.17
69464;DHT22;56665;41.106;16.688;2023-05-20T11:13:22;23.81;67.48
69464;DHT22;56665;41.106;16.688;2023-05-20T11:16:26;24.08;66.98
69464;DHT22;56665;41.106;16.688;2023-05-20T11:19:31;23.74;67.09
69464;DHT22;56665;41.106;16.688;2023-05-20T11:22:35;23.54;68.83
69464;DHT22;56665;41.106;16.688;2023-05-20T11:25:39;23.83;68.76
69464;DHT22;56665;41.106;16.688;2023-05-20T11:28:43;24.28;65.03
69464;DHT22;56665;41.106;16.688;2023-05-20T11:31:48;24.48;63.11
69464;DHT22;56665;41.106;16.688;2023-05-20T11:34:52;24.59;64.90
69464;DHT22;56665;41.106;16.688;2023-05-20T11:38:02;24.87;64.63
69464;DHT22;56665;41.106;16.688;2023-05-20T11:41:05;25.21;65.40
69464;DHT22;56665;41.106;16.688;2023-05-20T11:44:10;25.38;64.12
69464;DHT22;56665;41.106;16.688;2023-05-20T11:47:23;25.08;63.90
69464;DHT22;56665;41.106;16.688;2023-05-20T11:50:38;24.66;64.86
69464;DHT22;56665;41.106;16.688;2023-05-20T11:53:45;24.97;64.63
69464;DHT22;56665;41.106;16.688;2023-05-20T11:56:49;25.21;63.78
69464;DHT22;56665;41.106;16.688;2023-05-20T11:59:54;25.54;63.23
69464;DHT22;56665;41.106;16.688;2023-05-20T12:02:58;25.79;62.62
69464;DHT22;56665;41.106;16.688;2023-05-20T12:06:02;25.90;61.14
69464;DHT22;56665;41.106;16.688;2023-05-20T12:09:06;25.90;61.87
69464;DHT22;56665;41.106;16.688;2023-05-20T12:12:10;25.89;59.79
69464;DHT22;56665;41.106;16.688;2023-05-20T12:15:16;25.88;60.99
69464;DHT22;56665;41.106;16.688;2023-05-20T12:18:21;26.14;61.56
69464;DHT22;56665;41.106;16.688;2023-05-20T12:21:24;26.41;60.60
69464;DHT22;56665;41.106;16.688;2023-05-20T12:24:28;26.50;59.28
69464;DHT22;56665;41.106;16.688;2023-05-20T12:27:33;26.24;59.43
69464;DHT22;56665;41.106;16.688;2023-05-20T12:30:37;26.07;60.45
69464;DHT22;56665;41.106;16.688;2023-05-20T12:33:41;26.14;60.57
69464;DHT22;56665;41.106;16.688;2023-05-20T12:36:45;25.94;61.15
69464;DHT22;56665;41.106;16.688;2023-05-20T12:39:49;25.65;61.90
69464;DHT22;56665;41.106;16.688;2023-05-20T12:42:53;25.59;61.85
69464;DHT22;56665;41.106;16.688;2023-05-20T12:45:56;25.55;61.22
69464;DHT22;56665;41.106;16.688;2023-05-20T12:49:00;25.20;61.82
69464;DHT22;56665;41.106;16.688;2023-05-20T12:52:04;24.83;62.95
69464;DHT22;56665;41.106;16.688;2023-05-20T12:55:08;24.38;64.05
69464;DHT22;56665;41.106;16.688;2023-05-20T12:58:17;23.88;66.01
69464;DHT22;56665;41.106;16.688;2023-05-20T13:01:21;23.53;66.87
69464;DHT22;56665;41.106;16.688;2023-05-20T13:04:25;23.40;68.35
69464;DHT22;56665;41.106;16.688;2023-05-20T13:07:28;23.37;68.94
69464;DHT22;56665;41.106;16.688;2023-05-20T13:10:32;23.43;69.01
69464;DHT22;56665;41.106;16.688;2023-05-20T13:13:36;23.40;67.38
69464;DHT22;56665;41.106;16.688;2023-05-20T13:16:40;23.25;68.95
69464;DHT22;56665;41.106;16.688;2023-05-20T13:19:44;22.69;71.39
69464;DHT22;56665;41.106;16.688;2023-05-20T13:22:50;22.34;73.99
69464;DHT22;56665;41.106;16.688;2023-05-20T13:25:54;21.88;73.22
69464;DHT22;56665;41.106;16.688;2023-05-20T13:28:57;21.42;75.05
69464;DHT22;56665;41.106;16.688;2023-05-20T13:32:02;21.00;74.84
69464;DHT22;56665;41.106;16.688;2023-05-20T13:35:07;20.77;76.19
69464;DHT22;56665;41.106;16.688;2023-05-20T13:38:10;20.63;77.47
69464;DHT22;56665;41.106;16.688;2023-05-20T13:41:14;20.55;81.12
69464;DHT22;56665;41.106;16.688;2023-05-20T13:44:18;19.79;85.70
69464;DHT22;56665;41.106;16.688;2023-05-20T13:47:25;19.16;88.81
69464;DHT22;56665;41.106;16.688;2023-05-20T13:50:29;18.68;90.43
69464;DHT22;56665;41.106;16.688;2023-05-20T13:53:33;18.58;91.57
69464;DHT22;56665;41.106;16.688;2023-05-20T13:56:36;18.48;92.27
69464;DHT22;56665;41.106;16.688;2023-05-20T13:59:40;18.53;92.48
69464;DHT22;56665;41.106;16.688;2023-05-20T14:02:47;18.61;92.75
69464;DHT22;56665;41.106;16.688;2023-05-20T14:05:50;18.78;93.11
69464;DHT22;56665;41.106;16.688;2023-05-20T14:08:58;18.78;93.20
69464;DHT22;56665;41.106;16.688;2023-05-20T14:12:04;18.64;93.12
69464;DHT22;56665;41.106;16.688;2023-05-20T14:15:08;18.27;93.08
69464;DHT22;56665;41.106;16.688;2023-05-20T14:18:12;18.16;93.77
69464;DHT22;56665;41.106;16.688;2023-05-20T14:21:16;17.99;94.16
69464;DHT22;56665;41.106;16.688;2023-05-20T14:24:20;18.05;94.49
69464;DHT22;56665;41.106;16.688;2023-05-20T14:27:24;17.99;94.56
69464;DHT22;56665;41.106;16.688;2023-05-20T14:30:27;18.21;94.72
69464;DHT22;56665;41.106;16.688;2023-05-20T14:33:31;18.60;94.65
69464;DHT22;56665;41.106;16.688;2023-05-20T14:36:37;18.84;94.14
69464;DHT22;56665;41.106;16.688;2023-05-20T14:39:41;19.13;93.76
69464;DHT22;56665;41.106;16.688;2023-05-20T14:42:45;19.47;93.53
69464;DHT22;56665;41.106;16.688;2023-05-20T14:45:48;19.64;92.17
69464;DHT22;56665;41.106;16.688;2023-05-20T14:48:52;19.73;90.89
69464;DHT22;56665;41.106;16.688;2023-05-20T14:51:57;19.94;90.26
69464;DHT22;56665;41.106;16.688;2023-05-20T14:55:01;19.97;88.00
69464;DHT22;56665;41.106;16.688;2023-05-20T14:58:05;20.02;88.12
69464;DHT22;56665;41.106;16.688;2023-05-20T15:01:08;20.08;87.99
69464;DHT22;56665;41.106;16.688;2023-05-20T15:04:12;20.08;87.82
69464;DHT22;56665;41.106;16.688;2023-05-20T15:07:16;20.01;87.52
69464;DHT22;56665;41.106;16.688;2023-05-20T15:10:20;20.01;87.76
69464;DHT22;56665;41.106;16.688;2023-05-20T15:13:24;19.92;88.03
69464;DHT22;56665;41.106;16.688;2023-05-20T15:16:28;19.73;88.83
69464;DHT22;56665;41.106;16.688;2023-05-20T15:19:32;19.58;89.56
69464;DHT22;56665;41.106;16.688;2023-05-20T15:22:35;19.42;89.50
69464;DHT22;56665;41.106;16.688;2023-05-20T15:25:39;19.30;90.32
69464;DHT22;56665;41.106;16.688;2023-05-20T15:28:43;19.10;90.73
69464;DHT22;56665;41.106;16.688;2023-05-20T15:31:47;18.74;91.90
69464;DHT22;56665;41.106;16.688;2023-05-20T15:34:51;18.61;92.84
69464;DHT22;56665;41.106;16.688;2023-05-20T15:37:54;18.48;93.34
69464;DHT22;56665;41.106;16.688;2023-05-20T15:40:59;18.48;93.85
69464;DHT22;56665;41.106;16.688;2023-05-20T15:44:04;18.54;94.06
69464;DHT22;56665;41.106;16.688;2023-05-20T15:47:08;18.61;94.19
69464;DHT22;56665;41.106;16.688;2023-05-20T15:50:12;18.60;94.14
69464;DHT22;56665;41.106;16.688;2023-05-20T15:53:15;18.64;94.08
69464;DHT22;56665;41.106;16.688;2023-05-20T15:56:19;18.64;93.82
69464;DHT22;56665;41.106;16.688;2023-05-20T15:59:24;18.57;93.83
69464;DHT22;56665;41.106;16.688;2023-05-20T16:02:28;18.57;94.00
69464;DHT22;56665;41.106;16.688;2023-05-20T16:05:33;18.58;93.78
69464;DHT22;56665;41.106;16.688;2023-05-20T16:08:36;18.65;93.62
69464;DHT22;56665;41.106;16.688;2023-05-20T16:11:40;18.81;93.38
69464;DHT22;56665;41.106;16.688;2023-05-20T16:14:44;18.91;93.24
69464;DHT22;56665;41.106;16.688;2023-05-20T16:17:48;19.06;93.01
69464;DHT22;56665;41.106;16.688;2023-05-20T16:20:51;19.15;92.98
69464;DHT22;56665;41.106;16.688;2023-05-20T16:23:56;19.18;92.87
69464;DHT22;56665;41.106;16.688;2023-05-20T16:27:00;19.26;92.48
69464;DHT22;56665;41.106;16.688;2023-05-20T16:30:07;19.37;92.84
69464;DHT22;56665;41.106;16.688;2023-05-20T16:33:11;19.33;92.66
69464;DHT22;56665;41.106;16.688;2023-05-20T16:36:15;19.36;92.35
69464;DHT22;56665;41.106;16.688;2023-05-20T16:39:18;19.36;92.25
69464;DHT22;56665;41.106;16.688;2023-05-20T16:42:23;19.32;92.20
69464;DHT22;56665;41.106;16.688;2023-05-20T16:45:26;19.33;91.94
69464;DHT22;56665;41.106;16.688;2023-05-20T16:48:30;19.32;92.00
69464;DHT22;56665;41.106;16.688;2023-05-20T16:51:34;19.27;92.20
69464;DHT22;56665;41.106;16.688;2023-05-20T16:54:38;19.20;92.23
69464;DHT22;56665;41.106;16.688;2023-05-20T16:57:42;19.16;92.30
69464;DHT22;56665;41.106;16.688;2023-05-20T17:00:47;19.20;92.62
69464;DHT22;56665;41.106;16.688;2023-05-20T17:03:50;19.16;92.65
69464;DHT22;56665;41.106;16.688;2023-05-20T17:06:54;19.15;92.25
69464;DHT22;56665;41.106;16.688;2023-05-20T17:09:59;19.15;92.30
69464;DHT22;56665;41.106;16.688;2023-05-20T17:13:03;19.12;92.30
69464;DHT22;56665;41.106;16.688;2023-05-20T17:16:07;19.09;92.55
69464;DHT22;56665;41.106;16.688;2023-05-20T17:19:11;19.09;92.63
69464;DHT22;56665;41.106;16.688;2023-05-20T17:22:15;19.02;92.74
69464;DHT22;56665;41.106;16.688;2023-05-20T17:25:18;18.99;92.89
69464;DHT22;56665;41.106;16.688;2023-05-20T17:28:22;18.96;93.01
69464;DHT22;56665;41.106;16.688;2023-05-20T17:31:27;18.89;93.14
69464;DHT22;56665;41.106;16.688;2023-05-20T17:34:31;18.81;93.30
69464;DHT22;56665;41.106;16.688;2023-05-20T17:37:36;18.82;93.45
69464;DHT22;56665;41.106;16.688;2023-05-20T17:40:39;18.78;93.56
69464;DHT22;56665;41.106;16.688;2023-05-20T17:43:44;18.78;93.68
69464;DHT22;56665;41.106;16.688;2023-05-20T17:46:47;18.75;93.69
69464;DHT22;56665;41.106;16.688;2023-05-20T17:49:51;18.74;93.82
69464;DHT22;56665;41.106;16.688;2023-05-20T17:52:55;18.74;93.85
69464;DHT22;56665;41.106;16.688;2023-05-20T17:55:59;18.71;93.88
69464;DHT22;56665;41.106;16.688;2023-05-20T17:59:03;18.69;93.86
69464;DHT22;56665;41.106;16.688;2023-05-20T18:02:07;18.68;93.81
69464;DHT22;56665;41.106;16.688;2023-05-20T18:05:11;18.63;93.87
69464;DHT22;56665;41.106;16.688;2023-05-20T18:08:16;18.60;93.96
69464;DHT22;56665;41.106;16.688;2023-05-20T18:11:21;18.58;93.89
69464;DHT22;56665;41.106;16.688;2023-05-20T18:14:26;18.47;93.28
69464;DHT22;56665;41.106;16.688;2023-05-20T18:17:31;18.36;92.49
69464;DHT22;56665;41.106;16.688;2023-05-20T18:20:35;18.33;92.05
69464;DHT22;56665;41.106;16.688;2023-05-20T18:23:38;18.23;90.96
69464;DHT22;56665;41.106;16.688;2023-05-20T18:26:42;18.17;90.57
69464;DHT22;56665;41.106;16.688;2023-05-20T18:29:46;18.06;89.45
69464;DHT22;56665;41.106;16.688;2023-05-20T18:32:53;17.86;88.94
69464;DHT22;56665;41.106;16.688;2023-05-20T18:35:58;17.78;88.65
69464;DHT22;56665;41.106;16.688;2023-05-20T18:39:01;17.74;88.50
69464;DHT22;56665;41.106;16.688;2023-05-20T18:42:05;17.65;88.75
69464;DHT22;56665;41.106;16.688;2023-05-20T18:45:09;17.64;89.70
69464;DHT22;56665;41.106;16.688;2023-05-20T18:48:14;17.55;89.34
69464;DHT22;56665;41.106;16.688;2023-05-20T18:51:18;17.47;89.68
69464;DHT22;56665;41.106;16.688;2023-05-20T18:54:22;17.39;89.76
69464;DHT22;56665;41.106;16.688;2023-05-20T18:57:26;17.39;90.30
69464;DHT22;56665;41.106;16.688;2023-05-20T19:00:31;17.37;90.38
69464;DHT22;56665;41.106;16.688;2023-05-20T19:03:35;17.31;90.39
69464;DHT22;56665;41.106;16.688;2023-05-20T19:06:39;17.24;90.35
69464;DHT22;56665;41.106;16.688;2023-05-20T19:09:43;17.18;90.43
69464;DHT22;56665;41.106;16.688;2023-05-20T19:12:48;17.00;90.42
69464;DHT22;56665;41.106;16.688;2023-05-20T19:15:52;16.99;91.12
69464;DHT22;56665;41.106;16.688;2023-05-20T19:18:56;16.89;91.06
69464;DHT22;56665;41.106;16.688;2023-05-20T19:22:00;16.82;91.29